Procure no Apolo11
Meteógrafos Informações Meteorológicas em tempo real
Aeroporto de Congonhas
22-05-2022 10:56 BRT (UTC-3)

Temperatura atual: 14 graus 57 F    Umidade relativa: 76 %
Velocidade do vento: 06 nós 10 Km/h    Direção: 080 graus E
Ajuste do altímetro ..: 1026 HPA
Visibilidade: Péssima    Tempo presente: Céu Limpo

Observação
Data Hora BRTTempo°CUmidadePressãoVentoVisib.
22/05 - 09:56   Poucas nuvens esparsas 13° 82% 1026 Este-nordeste/9 km/h 9999
22/05 - 08:56   Parcialmente Nublado 11° 93% 1026 Este-nordeste/7 km/h 9999
22/05 - 07:56   Céu Encoberto 11° 93% 1025 Nordeste/10 km/h 6000
22/05 - 06:56   Névoa úmida 11° 93% 1025 Este-nordeste/7 km/h 5000
22/05 - 05:56   Céu Encoberto 11° 93% 1024 Este-nordeste/7 km/h 8000
22/05 - 04:56   Névoa úmida 09° 93% 1024 /3 km/h 1400
22/05 - 03:56   Névoa úmida 10° 100% 1024 Sudeste/3 km/h 1000
22/05 - 02:56   Não Disponível 11° 93% 1025 Sul/3 km/h 8000
22/05 - 01:56   Não Disponível 11° 93% 1025 Norte/0 km/h 6000
22/05 - 00:56   Não Disponível 12° 93% 1025 Sul/3 km/h 9000
21/05 - 23:56   Não Disponível 11° 93% 1026 Sul-sudeste/5 km/h OK
21/05 - 22:56   Quase sem nuvens 11° 93% 1026 Sul-sudeste/7 km/h 9000
21/05 - 21:56   Quase sem nuvens 11° 93% 1026 Sul-sudeste/7 km/h 9000
21/05 - 20:56   Céu Limpo 12° 93% 1025 Sul-sudeste/7 km/h OK
21/05 - 19:56   Céu Limpo 13° 87% 1025 Sul-sudeste/9 km/h OK
21/05 - 18:56   Céu Limpo 14° 82% 1024 Sul-sudeste/14 km/h OK
21/05 - 17:56   Céu Limpo 14° 82% 1024 Sul-sudeste/14 km/h OK
21/05 - 16:56   Céu Limpo 19° 39% 1024 /3 km/h OK
21/05 - 15:56   Céu Limpo 19° 42% 1024 Leste/7 km/h CAVO
21/05 - 14:56   Céu Limpo 19° 39% 1024 Norte-noroeste/9 km/h CAVO
21/05 - 13:56   Céu Limpo 18° 48% 1025 Norte-noroeste/7 km/h OK
21/05 - 12:56   Céu Limpo 17° 55% 1026 Este-sudeste/5 km/h OK
21/05 - 11:56   Céu Limpo 17° 55% 1026 Este-sudeste/5 km/h OK
21/05 - 10:56   Céu Limpo 15° 67% 1027 Este-nordeste/5 km/h OK

Termo de Uso  |   Links Úteis  |   Imprensa  |  Anuncie  |  Fale Conosco  |  Versão Celular  |   Política de Privacidade

Apolo11.com - Todos os direitos reservados - 2000 - 2022

"Usamos as ideias apenas para justificar nossa maldade, e as palavras para esconder nossas idéias." - Voltaire -